sensor_id;sensor_type;location;lat;lon;timestamp;P1;durP1;ratioP1;P2;durP2;ratioP2
85871;SDS011;76390;44.082;3.046;2024-03-08T00:01:47;4.60;;;1.00;;
85871;SDS011;76390;44.082;3.046;2024-03-08T00:04:13;5.60;;;0.95;;
85871;SDS011;76390;44.082;3.046;2024-03-08T00:06:40;3.83;;;1.10;;
85871;SDS011;76390;44.082;3.046;2024-03-08T00:09:06;6.30;;;1.30;;
85871;SDS011;76390;44.082;3.046;2024-03-08T00:11:33;4.68;;;1.10;;
85871;SDS011;76390;44.082;3.046;2024-03-08T00:14:00;5.10;;;1.15;;
85871;SDS011;76390;44.082;3.046;2024-03-08T00:16:25;4.85;;;1.27;;
85871;SDS011;76390;44.082;3.046;2024-03-08T00:18:51;5.28;;;1.00;;
85871;SDS011;76390;44.082;3.046;2024-03-08T00:21:17;3.97;;;1.38;;
85871;SDS011;76390;44.082;3.046;2024-03-08T00:23:42;8.05;;;1.50;;
85871;SDS011;76390;44.082;3.046;2024-03-08T00:26:08;6.30;;;1.00;;
85871;SDS011;76390;44.082;3.046;2024-03-08T00:28:33;4.10;;;1.10;;
85871;SDS011;76390;44.082;3.046;2024-03-08T00:31:02;3.88;;;1.10;;
85871;SDS011;76390;44.082;3.046;2024-03-08T00:33:27;3.60;;;1.13;;
85871;SDS011;76390;44.082;3.046;2024-03-08T00:35:56;4.60;;;1.05;;
85871;SDS011;76390;44.082;3.046;2024-03-08T00:38:22;3.40;;;1.38;;
85871;SDS011;76390;44.082;3.046;2024-03-08T00:40:47;4.97;;;1.23;;
85871;SDS011;76390;44.082;3.046;2024-03-08T00:43:13;6.47;;;1.30;;
85871;SDS011;76390;44.082;3.046;2024-03-08T00:45:39;8.13;;;1.27;;
85871;SDS011;76390;44.082;3.046;2024-03-08T00:48:08;4.32;;;0.93;;
85871;SDS011;76390;44.082;3.046;2024-03-08T00:50:34;5.00;;;1.00;;
85871;SDS011;76390;44.082;3.046;2024-03-08T00:52:59;5.13;;;1.40;;
85871;SDS011;76390;44.082;3.046;2024-03-08T00:55:25;4.78;;;1.20;;
85871;SDS011;76390;44.082;3.046;2024-03-08T00:57:51;4.95;;;1.40;;
85871;SDS011;76390;44.082;3.046;2024-03-08T01:00:19;2.28;;;0.98;;
85871;SDS011;76390;44.082;3.046;2024-03-08T01:02:46;3.38;;;1.20;;
85871;SDS011;76390;44.082;3.046;2024-03-08T01:05:13;5.25;;;1.58;;
85871;SDS011;76390;44.082;3.046;2024-03-08T01:07:39;3.38;;;1.10;;
85871;SDS011;76390;44.082;3.046;2024-03-08T01:10:04;5.00;;;1.10;;
85871;SDS011;76390;44.082;3.046;2024-03-08T01:12:34;5.00;;;1.40;;
85871;SDS011;76390;44.082;3.046;2024-03-08T01:15:00;5.80;;;1.27;;
85871;SDS011;76390;44.082;3.046;2024-03-08T01:17:26;5.00;;;1.30;;
85871;SDS011;76390;44.082;3.046;2024-03-08T01:19:52;5.53;;;1.13;;
85871;SDS011;76390;44.082;3.046;2024-03-08T01:22:18;5.13;;;1.10;;
85871;SDS011;76390;44.082;3.046;2024-03-08T01:24:44;5.32;;;1.73;;
85871;SDS011;76390;44.082;3.046;2024-03-08T01:27:10;5.30;;;1.50;;
85871;SDS011;76390;44.082;3.046;2024-03-08T01:29:37;5.60;;;1.30;;
85871;SDS011;76390;44.082;3.046;2024-03-08T01:32:02;4.70;;;1.33;;
85871;SDS011;76390;44.082;3.046;2024-03-08T01:34:28;3.28;;;1.20;;
85871;SDS011;76390;44.082;3.046;2024-03-08T01:36:54;4.18;;;1.20;;
85871;SDS011;76390;44.082;3.046;2024-03-08T01:39:21;4.88;;;1.25;;
85871;SDS011;76390;44.082;3.046;2024-03-08T01:41:47;3.03;;;1.00;;
85871;SDS011;76390;44.082;3.046;2024-03-08T01:44:13;3.55;;;1.15;;
85871;SDS011;76390;44.082;3.046;2024-03-08T01:46:43;3.17;;;1.30;;
85871;SDS011;76390;44.082;3.046;2024-03-08T01:49:09;4.57;;;1.10;;
85871;SDS011;76390;44.082;3.046;2024-03-08T01:51:35;6.53;;;1.70;;
85871;SDS011;76390;44.082;3.046;2024-03-08T01:54:01;5.18;;;1.38;;
85871;SDS011;76390;44.082;3.046;2024-03-08T01:56:27;4.70;;;1.45;;
85871;SDS011;76390;44.082;3.046;2024-03-08T01:58:54;7.63;;;1.02;;
85871;SDS011;76390;44.082;3.046;2024-03-08T02:01:20;4.07;;;1.20;;
85871;SDS011;76390;44.082;3.046;2024-03-08T02:03:45;3.40;;;1.10;;
85871;SDS011;76390;44.082;3.046;2024-03-08T02:06:11;4.88;;;1.08;;
85871;SDS011;76390;44.082;3.046;2024-03-08T02:08:39;2.90;;;0.88;;
85871;SDS011;76390;44.082;3.046;2024-03-08T02:11:10;5.05;;;1.30;;
85871;SDS011;76390;44.082;3.046;2024-03-08T02:13:36;4.63;;;0.90;;
85871;SDS011;76390;44.082;3.046;2024-03-08T02:16:01;2.85;;;1.20;;
85871;SDS011;76390;44.082;3.046;2024-03-08T02:18:28;8.52;;;1.08;;
85871;SDS011;76390;44.082;3.046;2024-03-08T02:20:58;9.73;;;1.23;;
85871;SDS011;76390;44.082;3.046;2024-03-08T02:23:24;7.43;;;1.25;;
85871;SDS011;76390;44.082;3.046;2024-03-08T02:25:51;5.63;;;1.23;;
85871;SDS011;76390;44.082;3.046;2024-03-08T02:28:17;2.97;;;1.00;;
85871;SDS011;76390;44.082;3.046;2024-03-08T02:30:46;2.92;;;1.30;;
85871;SDS011;76390;44.082;3.046;2024-03-08T02:33:13;3.38;;;0.90;;
85871;SDS011;76390;44.082;3.046;2024-03-08T02:35:41;4.43;;;1.17;;
85871;SDS011;76390;44.082;3.046;2024-03-08T02:38:11;3.15;;;0.98;;
85871;SDS011;76390;44.082;3.046;2024-03-08T02:40:47;5.60;;;1.63;;
85871;SDS011;76390;44.082;3.046;2024-03-08T02:43:14;7.47;;;1.30;;
85871;SDS011;76390;44.082;3.046;2024-03-08T02:45:40;3.45;;;0.85;;
85871;SDS011;76390;44.082;3.046;2024-03-08T02:48:10;4.55;;;1.13;;
85871;SDS011;76390;44.082;3.046;2024-03-08T02:50:36;5.85;;;1.30;;
85871;SDS011;76390;44.082;3.046;2024-03-08T02:53:02;5.85;;;1.10;;
85871;SDS011;76390;44.082;3.046;2024-03-08T02:55:28;4.53;;;1.20;;
85871;SDS011;76390;44.082;3.046;2024-03-08T02:57:54;6.30;;;1.33;;
85871;SDS011;76390;44.082;3.046;2024-03-08T03:00:20;8.23;;;1.27;;
85871;SDS011;76390;44.082;3.046;2024-03-08T03:02:48;4.47;;;1.23;;
85871;SDS011;76390;44.082;3.046;2024-03-08T03:05:17;4.28;;;1.17;;
85871;SDS011;76390;44.082;3.046;2024-03-08T03:07:42;2.30;;;0.90;;
85871;SDS011;76390;44.082;3.046;2024-03-08T03:10:08;4.82;;;0.73;;
85871;SDS011;76390;44.082;3.046;2024-03-08T03:12:34;4.75;;;1.27;;
85871;SDS011;76390;44.082;3.046;2024-03-08T03:14:59;4.63;;;1.58;;
85871;SDS011;76390;44.082;3.046;2024-03-08T03:17:25;2.88;;;1.20;;
85871;SDS011;76390;44.082;3.046;2024-03-08T03:19:51;4.88;;;1.40;;
85871;SDS011;76390;44.082;3.046;2024-03-08T03:22:17;3.47;;;0.85;;
85871;SDS011;76390;44.082;3.046;2024-03-08T03:24:43;3.53;;;0.90;;
85871;SDS011;76390;44.082;3.046;2024-03-08T03:27:11;5.80;;;1.08;;
85871;SDS011;76390;44.082;3.046;2024-03-08T03:29:41;2.58;;;0.98;;
85871;SDS011;76390;44.082;3.046;2024-03-08T03:32:14;6.20;;;1.40;;
85871;SDS011;76390;44.082;3.046;2024-03-08T03:34:40;4.82;;;1.30;;
85871;SDS011;76390;44.082;3.046;2024-03-08T03:37:07;8.93;;;1.10;;
85871;SDS011;76390;44.082;3.046;2024-03-08T03:39:33;2.85;;;1.10;;
85871;SDS011;76390;44.082;3.046;2024-03-08T03:42:02;4.85;;;1.10;;
85871;SDS011;76390;44.082;3.046;2024-03-08T03:44:28;7.00;;;1.40;;
85871;SDS011;76390;44.082;3.046;2024-03-08T03:46:54;2.78;;;0.90;;
85871;SDS011;76390;44.082;3.046;2024-03-08T03:49:20;8.02;;;1.48;;
85871;SDS011;76390;44.082;3.046;2024-03-08T03:51:45;2.58;;;0.90;;
85871;SDS011;76390;44.082;3.046;2024-03-08T03:54:12;4.45;;;0.80;;
85871;SDS011;76390;44.082;3.046;2024-03-08T03:56:38;4.18;;;1.20;;
85871;SDS011;76390;44.082;3.046;2024-03-08T03:59:05;6.75;;;1.30;;
85871;SDS011;76390;44.082;3.046;2024-03-08T04:01:32;5.20;;;1.40;;
85871;SDS011;76390;44.082;3.046;2024-03-08T04:03:59;3.22;;;0.95;;
85871;SDS011;76390;44.082;3.046;2024-03-08T04:06:24;4.75;;;1.52;;
85871;SDS011;76390;44.082;3.046;2024-03-08T04:08:50;3.40;;;1.00;;
85871;SDS011;76390;44.082;3.046;2024-03-08T04:11:15;4.97;;;1.00;;
85871;SDS011;76390;44.082;3.046;2024-03-08T04:13:42;3.35;;;0.95;;
85871;SDS011;76390;44.082;3.046;2024-03-08T04:16:08;4.43;;;0.95;;
85871;SDS011;76390;44.082;3.046;2024-03-08T04:18:36;2.58;;;1.00;;
85871;SDS011;76390;44.082;3.046;2024-03-08T04:21:04;6.97;;;1.02;;
85871;SDS011;76390;44.082;3.046;2024-03-08T04:23:33;3.58;;;2.58;;
85871;SDS011;76390;44.082;3.046;2024-03-08T04:26:01;3.03;;;0.90;;
85871;SDS011;76390;44.082;3.046;2024-03-08T04:28:28;3.00;;;0.93;;
85871;SDS011;76390;44.082;3.046;2024-03-08T04:30:54;3.75;;;1.00;;
85871;SDS011;76390;44.082;3.046;2024-03-08T04:33:19;3.65;;;1.15;;
85871;SDS011;76390;44.082;3.046;2024-03-08T04:35:46;4.13;;;1.10;;
85871;SDS011;76390;44.082;3.046;2024-03-08T04:38:12;4.07;;;1.10;;
85871;SDS011;76390;44.082;3.046;2024-03-08T04:40:38;7.13;;;1.23;;
85871;SDS011;76390;44.082;3.046;2024-03-08T04:43:03;4.32;;;1.13;;
85871;SDS011;76390;44.082;3.046;2024-03-08T04:45:29;3.83;;;1.10;;
85871;SDS011;76390;44.082;3.046;2024-03-08T04:47:54;2.88;;;0.90;;
85871;SDS011;76390;44.082;3.046;2024-03-08T04:50:20;4.25;;;1.10;;
85871;SDS011;76390;44.082;3.046;2024-03-08T04:52:45;5.00;;;0.82;;
85871;SDS011;76390;44.082;3.046;2024-03-08T04:55:11;6.15;;;1.33;;
85871;SDS011;76390;44.082;3.046;2024-03-08T04:57:37;2.35;;;0.80;;
85871;SDS011;76390;44.082;3.046;2024-03-08T05:00:03;1.42;;;0.90;;
85871;SDS011;76390;44.082;3.046;2024-03-08T05:02:35;5.20;;;0.90;;
85871;SDS011;76390;44.082;3.046;2024-03-08T05:05:01;4.25;;;1.02;;
85871;SDS011;76390;44.082;3.046;2024-03-08T05:07:27;2.75;;;0.60;;
85871;SDS011;76390;44.082;3.046;2024-03-08T05:09:52;3.15;;;1.00;;
85871;SDS011;76390;44.082;3.046;2024-03-08T05:12:18;6.65;;;1.42;;
85871;SDS011;76390;44.082;3.046;2024-03-08T05:14:45;4.57;;;1.08;;
85871;SDS011;76390;44.082;3.046;2024-03-08T05:17:14;4.38;;;0.88;;
85871;SDS011;76390;44.082;3.046;2024-03-08T05:19:40;3.35;;;1.00;;
85871;SDS011;76390;44.082;3.046;2024-03-08T05:22:05;1.75;;;0.70;;
85871;SDS011;76390;44.082;3.046;2024-03-08T05:24:31;1.70;;;0.70;;
85871;SDS011;76390;44.082;3.046;2024-03-08T05:26:56;3.65;;;0.85;;
85871;SDS011;76390;44.082;3.046;2024-03-08T05:29:22;2.67;;;0.93;;
85871;SDS011;76390;44.082;3.046;2024-03-08T05:31:49;5.10;;;1.05;;
85871;SDS011;76390;44.082;3.046;2024-03-08T05:34:17;4.38;;;1.30;;
85871;SDS011;76390;44.082;3.046;2024-03-08T05:36:45;5.28;;;1.00;;
85871;SDS011;76390;44.082;3.046;2024-03-08T05:39:12;4.93;;;1.15;;
85871;SDS011;76390;44.082;3.046;2024-03-08T05:41:38;4.10;;;1.13;;
85871;SDS011;76390;44.082;3.046;2024-03-08T05:44:04;2.97;;;1.17;;
85871;SDS011;76390;44.082;3.046;2024-03-08T05:46:30;2.88;;;1.20;;
85871;SDS011;76390;44.082;3.046;2024-03-08T05:48:55;3.35;;;0.90;;
85871;SDS011;76390;44.082;3.046;2024-03-08T05:51:23;2.28;;;1.00;;
85871;SDS011;76390;44.082;3.046;2024-03-08T05:53:49;3.05;;;0.90;;
85871;SDS011;76390;44.082;3.046;2024-03-08T05:56:15;2.95;;;1.10;;
85871;SDS011;76390;44.082;3.046;2024-03-08T05:58:40;5.93;;;1.42;;
85871;SDS011;76390;44.082;3.046;2024-03-08T06:01:05;3.22;;;1.38;;
85871;SDS011;76390;44.082;3.046;2024-03-08T06:03:33;5.70;;;1.25;;
85871;SDS011;76390;44.082;3.046;2024-03-08T06:05:59;4.63;;;1.17;;
85871;SDS011;76390;44.082;3.046;2024-03-08T06:08:24;4.45;;;1.25;;
85871;SDS011;76390;44.082;3.046;2024-03-08T06:10:55;5.35;;;1.23;;
85871;SDS011;76390;44.082;3.046;2024-03-08T06:13:21;2.90;;;1.00;;
85871;SDS011;76390;44.082;3.046;2024-03-08T06:15:46;3.05;;;1.20;;
85871;SDS011;76390;44.082;3.046;2024-03-08T06:18:12;7.25;;;1.35;;
85871;SDS011;76390;44.082;3.046;2024-03-08T06:20:37;6.05;;;1.55;;
85871;SDS011;76390;44.082;3.046;2024-03-08T06:23:03;3.50;;;1.20;;
85871;SDS011;76390;44.082;3.046;2024-03-08T06:25:29;2.10;;;1.08;;
85871;SDS011;76390;44.082;3.046;2024-03-08T06:27:54;6.32;;;1.27;;
85871;SDS011;76390;44.082;3.046;2024-03-08T06:30:20;4.38;;;1.65;;
85871;SDS011;76390;44.082;3.046;2024-03-08T06:32:46;3.03;;;0.98;;
85871;SDS011;76390;44.082;3.046;2024-03-08T06:35:12;3.40;;;1.13;;
85871;SDS011;76390;44.082;3.046;2024-03-08T06:37:37;6.25;;;1.40;;
85871;SDS011;76390;44.082;3.046;2024-03-08T06:40:03;5.05;;;1.13;;
85871;SDS011;76390;44.082;3.046;2024-03-08T06:42:29;5.95;;;1.25;;
85871;SDS011;76390;44.082;3.046;2024-03-08T06:44:58;2.97;;;1.35;;
85871;SDS011;76390;44.082;3.046;2024-03-08T06:47:29;5.45;;;1.50;;
85871;SDS011;76390;44.082;3.046;2024-03-08T06:49:55;3.47;;;1.20;;
85871;SDS011;76390;44.082;3.046;2024-03-08T06:52:20;5.30;;;1.17;;
85871;SDS011;76390;44.082;3.046;2024-03-08T06:54:47;2.92;;;0.98;;
85871;SDS011;76390;44.082;3.046;2024-03-08T06:57:13;3.65;;;1.38;;
85871;SDS011;76390;44.082;3.046;2024-03-08T06:59:39;6.20;;;1.65;;
85871;SDS011;76390;44.082;3.046;2024-03-08T07:02:05;3.22;;;1.20;;
85871;SDS011;76390;44.082;3.046;2024-03-08T07:04:34;4.90;;;1.30;;
85871;SDS011;76390;44.082;3.046;2024-03-08T07:07:06;3.30;;;1.20;;
85871;SDS011;76390;44.082;3.046;2024-03-08T07:09:37;4.30;;;1.40;;
85871;SDS011;76390;44.082;3.046;2024-03-08T07:12:03;5.13;;;1.35;;
85871;SDS011;76390;44.082;3.046;2024-03-08T07:14:29;4.85;;;1.55;;
85871;SDS011;76390;44.082;3.046;2024-03-08T07:16:56;4.85;;;1.50;;
85871;SDS011;76390;44.082;3.046;2024-03-08T07:19:21;4.78;;;1.38;;
85871;SDS011;76390;44.082;3.046;2024-03-08T07:21:47;2.78;;;1.27;;
85871;SDS011;76390;44.082;3.046;2024-03-08T07:24:13;6.20;;;1.52;;
85871;SDS011;76390;44.082;3.046;2024-03-08T07:26:44;5.30;;;1.50;;
85871;SDS011;76390;44.082;3.046;2024-03-08T07:29:14;5.28;;;1.70;;
85871;SDS011;76390;44.082;3.046;2024-03-08T07:31:40;6.20;;;1.67;;
85871;SDS011;76390;44.082;3.046;2024-03-08T07:34:24;5.18;;;1.48;;
85871;SDS011;76390;44.082;3.046;2024-03-08T07:36:50;3.72;;;1.17;;
85871;SDS011;76390;44.082;3.046;2024-03-08T07:39:16;1.92;;;0.93;;
85871;SDS011;76390;44.082;3.046;2024-03-08T07:41:41;4.35;;;1.50;;
85871;SDS011;76390;44.082;3.046;2024-03-08T07:44:07;1.00;;;0.73;;
85871;SDS011;76390;44.082;3.046;2024-03-08T07:46:32;4.38;;;1.70;;
85871;SDS011;76390;44.082;3.046;2024-03-08T07:49:02;4.68;;;1.35;;
85871;SDS011;76390;44.082;3.046;2024-03-08T07:51:28;2.53;;;1.30;;
85871;SDS011;76390;44.082;3.046;2024-03-08T07:53:54;2.03;;;0.90;;
85871;SDS011;76390;44.082;3.046;2024-03-08T07:56:20;2.28;;;1.33;;
85871;SDS011;76390;44.082;3.046;2024-03-08T07:58:47;2.80;;;1.15;;
85871;SDS011;76390;44.082;3.046;2024-03-08T08:01:17;2.60;;;1.15;;
85871;SDS011;76390;44.082;3.046;2024-03-08T08:03:43;5.55;;;2.70;;
85871;SDS011;76390;44.082;3.046;2024-03-08T08:06:08;4.57;;;0.90;;
85871;SDS011;76390;44.082;3.046;2024-03-08T08:08:35;2.25;;;0.90;;
85871;SDS011;76390;44.082;3.046;2024-03-08T08:11:00;2.25;;;0.90;;
85871;SDS011;76390;44.082;3.046;2024-03-08T08:13:27;2.28;;;1.00;;
85871;SDS011;76390;44.082;3.046;2024-03-08T08:15:57;2.75;;;1.00;;
85871;SDS011;76390;44.082;3.046;2024-03-08T08:18:23;0.68;;;0.43;;
85871;SDS011;76390;44.082;3.046;2024-03-08T08:20:50;2.17;;;0.70;;
85871;SDS011;76390;44.082;3.046;2024-03-08T08:23:17;2.40;;;0.77;;
85871;SDS011;76390;44.082;3.046;2024-03-08T08:25:45;0.90;;;0.35;;
85871;SDS011;76390;44.082;3.046;2024-03-08T08:28:11;1.10;;;0.63;;
85871;SDS011;76390;44.082;3.046;2024-03-08T08:30:37;3.22;;;1.13;;
85871;SDS011;76390;44.082;3.046;2024-03-08T08:33:03;2.15;;;0.75;;
85871;SDS011;76390;44.082;3.046;2024-03-08T08:35:30;1.17;;;0.60;;
85871;SDS011;76390;44.082;3.046;2024-03-08T08:37:56;2.60;;;0.70;;
85871;SDS011;76390;44.082;3.046;2024-03-08T08:40:24;1.75;;;0.60;;
85871;SDS011;76390;44.082;3.046;2024-03-08T08:42:51;1.42;;;0.70;;
85871;SDS011;76390;44.082;3.046;2024-03-08T08:45:18;2.83;;;0.60;;
85871;SDS011;76390;44.082;3.046;2024-03-08T08:47:44;1.10;;;0.90;;
85871;SDS011;76390;44.082;3.046;2024-03-08T08:50:10;0.57;;;0.57;;
85871;SDS011;76390;44.082;3.046;2024-03-08T08:52:39;3.00;;;0.93;;
85871;SDS011;76390;44.082;3.046;2024-03-08T08:55:05;1.17;;;0.80;;
85871;SDS011;76390;44.082;3.046;2024-03-08T08:57:31;1.75;;;0.63;;
85871;SDS011;76390;44.082;3.046;2024-03-08T08:59:58;1.17;;;0.60;;
85871;SDS011;76390;44.082;3.046;2024-03-08T09:02:25;1.65;;;0.80;;
85871;SDS011;76390;44.082;3.046;2024-03-08T09:04:51;1.27;;;0.50;;
85871;SDS011;76390;44.082;3.046;2024-03-08T09:07:17;1.80;;;0.77;;
85871;SDS011;76390;44.082;3.046;2024-03-08T09:09:44;1.27;;;0.85;;
85871;SDS011;76390;44.082;3.046;2024-03-08T09:12:10;1.95;;;0.70;;
85871;SDS011;76390;44.082;3.046;2024-03-08T09:14:41;3.65;;;1.23;;
85871;SDS011;76390;44.082;3.046;2024-03-08T09:17:07;1.77;;;0.80;;
85871;SDS011;76390;44.082;3.046;2024-03-08T09:19:35;1.30;;;0.80;;
85871;SDS011;76390;44.082;3.046;2024-03-08T09:22:02;1.77;;;0.90;;
85871;SDS011;76390;44.082;3.046;2024-03-08T09:24:29;0.77;;;0.70;;
85871;SDS011;76390;44.082;3.046;2024-03-08T09:26:56;2.40;;;0.80;;
85871;SDS011;76390;44.082;3.046;2024-03-08T09:29:24;2.70;;;0.80;;
85871;SDS011;76390;44.082;3.046;2024-03-08T09:31:49;1.67;;;0.93;;
85871;SDS011;76390;44.082;3.046;2024-03-08T09:34:15;1.30;;;0.80;;
85871;SDS011;76390;44.082;3.046;2024-03-08T09:36:40;1.02;;;0.65;;
85871;SDS011;76390;44.082;3.046;2024-03-08T09:39:06;2.13;;;0.80;;
85871;SDS011;76390;44.082;3.046;2024-03-08T09:41:33;0.90;;;0.68;;
85871;SDS011;76390;44.082;3.046;2024-03-08T09:43:59;0.95;;;0.50;;
85871;SDS011;76390;44.082;3.046;2024-03-08T09:46:25;1.08;;;0.68;;
85871;SDS011;76390;44.082;3.046;2024-03-08T09:48:52;1.08;;;0.60;;
85871;SDS011;76390;44.082;3.046;2024-03-08T09:51:20;2.10;;;0.70;;
85871;SDS011;76390;44.082;3.046;2024-03-08T09:53:49;1.38;;;0.63;;
85871;SDS011;76390;44.082;3.046;2024-03-08T09:56:14;0.50;;;0.50;;
85871;SDS011;76390;44.082;3.046;2024-03-08T09:58:40;0.98;;;0.60;;
85871;SDS011;76390;44.082;3.046;2024-03-08T10:01:37;1.70;;;0.60;;
85871;SDS011;76390;44.082;3.046;2024-03-08T10:04:04;0.80;;;0.50;;
85871;SDS011;76390;44.082;3.046;2024-03-08T10:06:30;0.60;;;0.60;;
85871;SDS011;76390;44.082;3.046;2024-03-08T10:08:56;1.15;;;0.50;;
85871;SDS011;76390;44.082;3.046;2024-03-08T10:11:22;0.50;;;0.40;;
85871;SDS011;76390;44.082;3.046;2024-03-08T10:13:52;0.60;;;0.60;;
85871;SDS011;76390;44.082;3.046;2024-03-08T10:16:17;0.52;;;0.50;;
85871;SDS011;76390;44.082;3.046;2024-03-08T10:18:44;1.95;;;0.60;;
85871;SDS011;76390;44.082;3.046;2024-03-08T10:21:11;0.93;;;0.50;;
85871;SDS011;76390;44.082;3.046;2024-03-08T10:23:36;1.42;;;0.88;;
85871;SDS011;76390;44.082;3.046;2024-03-08T10:26:09;0.80;;;0.60;;
85871;SDS011;76390;44.082;3.046;2024-03-08T10:28:50;0.85;;;0.25;;
85871;SDS011;76390;44.082;3.046;2024-03-08T10:31:19;1.65;;;0.60;;
85871;SDS011;76390;44.082;3.046;2024-03-08T10:33:45;2.80;;;0.52;;
85871;SDS011;76390;44.082;3.046;2024-03-08T10:36:12;2.03;;;0.80;;
85871;SDS011;76390;44.082;3.046;2024-03-08T10:38:39;1.50;;;0.60;;
85871;SDS011;76390;44.082;3.046;2024-03-08T10:41:09;0.73;;;0.50;;
85871;SDS011;76390;44.082;3.046;2024-03-08T10:46:21;1.30;;;0.60;;
85871;SDS011;76390;44.082;3.046;2024-03-08T10:49:12;1.48;;;0.65;;
85871;SDS011;76390;44.082;3.046;2024-03-08T10:51:42;0.52;;;0.40;;
85871;SDS011;76390;44.082;3.046;2024-03-08T10:54:09;0.47;;;0.43;;
85871;SDS011;76390;44.082;3.046;2024-03-08T10:56:35;1.02;;;0.47;;
85871;SDS011;76390;44.082;3.046;2024-03-08T10:59:01;0.55;;;0.38;;
85871;SDS011;76390;44.082;3.046;2024-03-08T11:01:29;0.45;;;0.25;;
85871;SDS011;76390;44.082;3.046;2024-03-08T11:03:55;0.40;;;0.30;;
85871;SDS011;76390;44.082;3.046;2024-03-08T11:06:41;0.35;;;0.20;;
85871;SDS011;76390;44.082;3.046;2024-03-08T11:14:46;0.57;;;0.20;;
85871;SDS011;76390;44.082;3.046;2024-03-08T11:17:48;0.30;;;0.30;;
85871;SDS011;76390;44.082;3.046;2024-03-08T11:20:13;0.65;;;0.40;;
85871;SDS011;76390;44.082;3.046;2024-03-08T11:22:50;1.48;;;0.40;;
85871;SDS011;76390;44.082;3.046;2024-03-08T11:28:17;2.20;;;0.40;;
85871;SDS011;76390;44.082;3.046;2024-03-08T11:30:45;1.63;;;0.25;;
85871;SDS011;76390;44.082;3.046;2024-03-08T11:33:13;0.43;;;0.40;;
85871;SDS011;76390;44.082;3.046;2024-03-08T11:35:41;0.35;;;0.30;;
85871;SDS011;76390;44.082;3.046;2024-03-08T11:38:07;0.57;;;0.28;;
85871;SDS011;76390;44.082;3.046;2024-03-08T11:40:34;1.50;;;0.45;;
85871;SDS011;76390;44.082;3.046;2024-03-08T11:43:00;0.20;;;0.20;;
85871;SDS011;76390;44.082;3.046;2024-03-08T11:45:29;0.50;;;0.30;;
85871;SDS011;76390;44.082;3.046;2024-03-08T11:47:55;0.20;;;0.20;;
85871;SDS011;76390;44.082;3.046;2024-03-08T11:50:20;0.43;;;0.25;;
85871;SDS011;76390;44.082;3.046;2024-03-08T11:52:48;0.35;;;0.30;;
85871;SDS011;76390;44.082;3.046;2024-03-08T11:55:14;0.25;;;0.20;;
85871;SDS011;76390;44.082;3.046;2024-03-08T11:57:40;0.30;;;0.30;;
85871;SDS011;76390;44.082;3.046;2024-03-08T12:00:11;0.95;;;0.40;;
85871;SDS011;76390;44.082;3.046;2024-03-08T12:02:46;0.43;;;0.30;;
85871;SDS011;76390;44.082;3.046;2024-03-08T12:05:15;0.35;;;0.22;;
85871;SDS011;76390;44.082;3.046;2024-03-08T12:07:41;0.32;;;0.30;;
85871;SDS011;76390;44.082;3.046;2024-03-08T12:10:18;0.40;;;0.30;;
85871;SDS011;76390;44.082;3.046;2024-03-08T12:12:47;0.25;;;0.20;;
85871;SDS011;76390;44.082;3.046;2024-03-08T12:15:24;1.58;;;0.50;;
85871;SDS011;76390;44.082;3.046;2024-03-08T12:17:51;0.25;;;0.20;;
85871;SDS011;76390;44.082;3.046;2024-03-08T12:22:56;0.17;;;0.13;;
85871;SDS011;76390;44.082;3.046;2024-03-08T12:25:22;1.40;;;0.30;;
85871;SDS011;76390;44.082;3.046;2024-03-08T12:27:48;0.35;;;0.30;;
85871;SDS011;76390;44.082;3.046;2024-03-08T12:30:23;0.55;;;0.40;;
85871;SDS011;76390;44.082;3.046;2024-03-08T12:32:53;0.40;;;0.30;;
85871;SDS011;76390;44.082;3.046;2024-03-08T12:35:22;0.20;;;0.20;;
85871;SDS011;76390;44.082;3.046;2024-03-08T12:37:55;0.35;;;0.20;;
85871;SDS011;76390;44.082;3.046;2024-03-08T12:40:40;0.20;;;0.20;;
85871;SDS011;76390;44.082;3.046;2024-03-08T12:43:07;0.52;;;0.28;;
85871;SDS011;76390;44.082;3.046;2024-03-08T12:45:32;0.10;;;0.10;;
85871;SDS011;76390;44.082;3.046;2024-03-08T12:47:58;0.10;;;0.10;;
85871;SDS011;76390;44.082;3.046;2024-03-08T12:50:24;0.40;;;0.20;;
85871;SDS011;76390;44.082;3.046;2024-03-08T12:52:50;0.45;;;0.20;;
85871;SDS011;76390;44.082;3.046;2024-03-08T12:55:17;0.38;;;0.35;;
85871;SDS011;76390;44.082;3.046;2024-03-08T12:57:43;0.40;;;0.30;;
85871;SDS011;76390;44.082;3.046;2024-03-08T13:00:09;0.20;;;0.20;;
85871;SDS011;76390;44.082;3.046;2024-03-08T13:02:46;0.40;;;0.40;;
85871;SDS011;76390;44.082;3.046;2024-03-08T13:05:12;0.30;;;0.20;;
85871;SDS011;76390;44.082;3.046;2024-03-08T13:07:39;0.55;;;0.30;;
85871;SDS011;76390;44.082;3.046;2024-03-08T13:10:06;0.30;;;0.30;;
85871;SDS011;76390;44.082;3.046;2024-03-08T13:12:32;0.55;;;0.30;;
85871;SDS011;76390;44.082;3.046;2024-03-08T13:14:58;1.02;;;0.38;;
85871;SDS011;76390;44.082;3.046;2024-03-08T13:17:23;0.85;;;0.57;;
85871;SDS011;76390;44.082;3.046;2024-03-08T13:19:49;0.70;;;0.47;;
85871;SDS011;76390;44.082;3.046;2024-03-08T13:22:14;0.85;;;0.50;;
85871;SDS011;76390;44.082;3.046;2024-03-08T13:24:44;0.40;;;0.20;;
85871;SDS011;76390;44.082;3.046;2024-03-08T13:27:10;0.25;;;0.20;;
85871;SDS011;76390;44.082;3.046;2024-03-08T13:29:47;1.60;;;0.20;;
85871;SDS011;76390;44.082;3.046;2024-03-08T13:32:16;2.22;;;0.55;;
85871;SDS011;76390;44.082;3.046;2024-03-08T13:34:43;0.30;;;0.25;;
85871;SDS011;76390;44.082;3.046;2024-03-08T13:37:10;0.65;;;0.20;;
85871;SDS011;76390;44.082;3.046;2024-03-08T13:39:37;0.60;;;0.40;;
85871;SDS011;76390;44.082;3.046;2024-03-08T13:42:12;1.75;;;0.30;;
85871;SDS011;76390;44.082;3.046;2024-03-08T13:44:44;0.30;;;0.30;;
85871;SDS011;76390;44.082;3.046;2024-03-08T13:47:12;1.45;;;0.40;;
85871;SDS011;76390;44.082;3.046;2024-03-08T13:49:41;0.63;;;0.30;;
85871;SDS011;76390;44.082;3.046;2024-03-08T13:52:08;0.43;;;0.43;;
85871;SDS011;76390;44.082;3.046;2024-03-08T13:54:34;0.80;;;0.55;;
85871;SDS011;76390;44.082;3.046;2024-03-08T13:57:00;2.03;;;0.50;;
85871;SDS011;76390;44.082;3.046;2024-03-08T13:59:29;1.80;;;0.60;;
85871;SDS011;76390;44.082;3.046;2024-03-08T14:02:01;1.38;;;0.70;;
85871;SDS011;76390;44.082;3.046;2024-03-08T14:04:28;1.83;;;0.57;;
85871;SDS011;76390;44.082;3.046;2024-03-08T14:06:54;1.33;;;0.60;;
85871;SDS011;76390;44.082;3.046;2024-03-08T14:09:26;2.08;;;0.60;;
85871;SDS011;76390;44.082;3.046;2024-03-08T14:11:54;1.05;;;0.70;;
85871;SDS011;76390;44.082;3.046;2024-03-08T14:14:23;2.65;;;1.00;;
85871;SDS011;76390;44.082;3.046;2024-03-08T14:16:49;2.67;;;0.55;;
85871;SDS011;76390;44.082;3.046;2024-03-08T14:19:19;4.65;;;0.95;;
85871;SDS011;76390;44.082;3.046;2024-03-08T14:21:45;3.15;;;0.73;;
85871;SDS011;76390;44.082;3.046;2024-03-08T14:24:12;4.70;;;1.08;;
85871;SDS011;76390;44.082;3.046;2024-03-08T14:26:37;3.83;;;1.00;;
85871;SDS011;76390;44.082;3.046;2024-03-08T14:29:04;3.53;;;1.00;;
85871;SDS011;76390;44.082;3.046;2024-03-08T14:31:30;6.60;;;1.30;;
85871;SDS011;76390;44.082;3.046;2024-03-08T14:33:56;2.28;;;0.73;;
85871;SDS011;76390;44.082;3.046;2024-03-08T14:36:24;2.80;;;0.60;;
85871;SDS011;76390;44.082;3.046;2024-03-08T14:38:51;3.65;;;1.10;;
85871;SDS011;76390;44.082;3.046;2024-03-08T14:41:17;3.63;;;0.95;;
85871;SDS011;76390;44.082;3.046;2024-03-08T14:43:43;3.65;;;1.02;;
85871;SDS011;76390;44.082;3.046;2024-03-08T14:46:13;3.95;;;0.88;;
85871;SDS011;76390;44.082;3.046;2024-03-08T14:48:55;5.30;;;1.30;;
85871;SDS011;76390;44.082;3.046;2024-03-08T14:51:23;3.85;;;1.55;;
85871;SDS011;76390;44.082;3.046;2024-03-08T14:53:54;4.13;;;0.90;;
85871;SDS011;76390;44.082;3.046;2024-03-08T14:56:20;4.75;;;0.90;;
85871;SDS011;76390;44.082;3.046;2024-03-08T14:58:46;5.70;;;1.08;;
85871;SDS011;76390;44.082;3.046;2024-03-08T15:01:14;5.05;;;1.05;;
85871;SDS011;76390;44.082;3.046;2024-03-08T15:03:43;3.90;;;0.85;;